Time;durP1;ratioP1;P1;durP2;ratioP2;P2;SDS_P1;SDS_P2;PMS_P1;PMS_P2;Temp;Humidity;BMP_temperature;BMP_pressure;BME280_temperature;BME280_humidity;BME280_pressure;Samples;Min_cycle;Max_cycle;Signal;HPM_P1;HPM_P2
2023/04/01 00:00:17;;;;;;;1.90;1.70;;;;;;;7.33;nan;96470.28;1726879;75;24583;-70
2023/04/01 00:02:47;;;;;;;1.40;1.30;;;;;;;7.49;nan;96466.22;1727173;75;24039;-69
2023/04/01 00:05:19;;;;;;;1.70;1.30;;;;;;;7.54;nan;96458.06;1726823;75;25350;-70
2023/04/01 00:07:51;;;;;;;1.80;1.10;;;;;;;7.47;nan;96459.25;1727098;75;24585;-69
2023/04/01 00:10:21;;;;;;;1.40;1.30;;;;;;;7.36;nan;96456.47;1726549;75;25435;-72
2023/04/01 00:12:51;;;;;;;2.30;2.10;;;;;;;7.36;nan;96455.69;1727304;75;24161;-69
2023/04/01 00:15:20;;;;;;;2.60;2.20;;;;;;;7.26;nan;96455.13;1726611;75;24289;-68
2023/04/01 00:17:50;;;;;;;4.90;2.60;;;;;;;7.29;nan;96459.63;1727398;75;24138;-70
2023/04/01 00:20:20;;;;;;;2.60;1.80;;;;;;;7.28;nan;96454.66;1727004;75;24984;-70
2023/04/01 00:22:52;;;;;;;1.90;1.70;;;;;;;7.34;nan;96448.03;1726900;75;24983;-69
2023/04/01 00:25:22;;;;;;;2.00;1.60;;;;;;;7.31;nan;96437.34;1726264;75;24965;-69
2023/04/01 00:27:52;;;;;;;1.50;1.30;;;;;;;7.36;nan;96439.38;1727353;75;24645;-68
2023/04/01 00:30:22;;;;;;;1.90;1.40;;;;;;;7.39;nan;96436.44;1726805;75;24479;-69
2023/04/01 00:32:55;;;;;;;1.60;1.20;;;;;;;7.30;nan;96438.59;1727343;75;24295;-69
2023/04/01 00:35:25;;;;;;;1.40;1.30;;;;;;;7.28;nan;96432.88;1726769;75;25439;-71
2023/04/01 00:37:57;;;;;;;1.70;1.30;;;;;;;7.31;nan;96438.13;1727156;75;25407;-71
2023/04/01 00:40:32;;;;;;;2.20;1.20;;;;;;;7.29;nan;96431.63;1726830;75;25139;-70
2023/04/01 00:43:02;;;;;;;1.20;1.10;;;;;;;7.34;nan;96431.69;1727281;75;24451;-72
2023/04/01 00:45:37;;;;;;;1.60;1.10;;;;;;;7.33;nan;96432.19;1726753;75;26209;-69
2023/04/01 00:48:13;;;;;;;1.30;0.90;;;;;;;7.37;nan;96433.44;1726863;75;24967;-70
2023/04/01 00:50:48;;;;;;;2.30;1.10;;;;;;;7.26;nan;96430.63;1726974;75;25051;-69
2023/04/01 00:53:23;;;;;;;1.40;1.30;;;;;;;7.24;nan;96422.22;1726741;75;24821;-72
2023/04/01 00:55:59;;;;;;;1.20;1.10;;;;;;;7.14;nan;96427.06;1727164;75;24752;-69
2023/04/01 00:58:32;;;;;;;1.20;1.10;;;;;;;7.25;nan;96429.88;1726855;75;24109;-69
2023/04/01 01:01:03;;;;;;;1.30;1.10;;;;;;;7.21;nan;96418.47;1727083;75;24216;-69
2023/04/01 01:03:33;;;;;;;0.90;0.90;;;;;;;7.17;nan;96412.53;1726844;75;25004;-72
2023/04/01 01:06:33;;;;;;;1.00;0.90;;;;;;;7.12;nan;96404.28;1727231;75;24658;-70
2023/04/01 01:09:21;;;;;;;1.20;1.00;;;;;;;7.12;nan;96399.63;1726801;75;24597;-71
2023/04/01 01:11:58;;;;;;;1.30;1.10;;;;;;;7.16;nan;96391.97;1726644;75;24866;-73
2023/04/01 01:14:42;;;;;;;1.50;1.10;;;;;;;7.18;nan;96403.13;1727211;75;24078;-69
2023/04/01 01:17:20;;;;;;;1.00;0.90;;;;;;;7.13;nan;96397.63;1726781;75;25491;-68
2023/04/01 01:20:22;;;;;;;2.30;1.70;;;;;;;7.05;nan;96402.78;1726811;75;25027;-71
2023/04/01 01:23:17;;;;;;;3.00;1.70;;;;;;;6.92;nan;96400.44;1726937;75;24935;-69
2023/04/01 01:26:09;;;;;;;3.20;1.70;;;;;;;6.95;nan;96394.03;1726893;75;25178;-72
2023/04/01 01:28:56;;;;;;;2.10;1.40;;;;;;;6.95;nan;96396.00;1726800;75;24972;-69
2023/04/01 01:31:36;;;;;;;1.50;1.20;;;;;;;6.93;nan;96396.50;1726701;75;24728;-70
2023/04/01 01:34:18;;;;;;;2.70;1.60;;;;;;;6.89;nan;96397.94;1726825;75;24356;-68
2023/04/01 01:36:56;;;;;;;1.00;0.90;;;;;;;6.89;nan;96395.22;1727011;75;25003;-69
2023/04/01 01:39:31;;;;;;;1.10;1.00;;;;;;;6.89;nan;96393.22;1726750;75;25093;-69
2023/04/01 01:42:04;;;;;;;0.70;0.70;;;;;;;6.85;nan;96387.25;1727666;75;24414;-68
2023/04/01 01:44:35;;;;;;;1.80;1.10;;;;;;;6.82;nan;96380.06;1727459;75;25230;-69
2023/04/01 01:47:05;;;;;;;2.30;1.20;;;;;;;6.79;nan;96372.88;1727108;75;25008;-69
2023/04/01 01:49:36;;;;;;;1.20;1.10;;;;;;;6.64;nan;96378.44;1726926;75;24769;-70
2023/04/01 01:52:09;;;;;;;1.30;1.20;;;;;;;6.64;nan;96372.22;1727179;75;24336;-69
2023/04/01 01:54:38;;;;;;;1.40;1.20;;;;;;;6.58;nan;96366.75;1726895;75;24208;-68
2023/04/01 01:57:12;;;;;;;1.10;1.00;;;;;;;6.66;nan;96375.22;1727270;75;24165;-72
2023/04/01 01:59:45;;;;;;;0.80;0.80;;;;;;;6.60;nan;96364.28;1726987;75;25187;-71
2023/04/01 02:02:17;;;;;;;1.20;1.10;;;;;;;6.56;nan;96358.31;1727061;75;24296;-69
2023/04/01 02:04:48;;;;;;;1.20;1.10;;;;;;;6.60;nan;96346.00;1726974;75;24796;-71
2023/04/01 02:07:27;;;;;;;1.20;0.90;;;;;;;6.56;nan;96345.47;1727421;75;24616;-70
2023/04/01 02:09:58;;;;;;;1.50;1.20;;;;;;;6.53;nan;96349.16;1727273;75;24629;-70
2023/04/01 02:12:29;;;;;;;1.70;1.30;;;;;;;6.53;nan;96353.84;1727604;75;24176;-72
2023/04/01 02:15:05;;;;;;;2.90;2.20;;;;;;;6.52;nan;96357.81;1727183;75;25137;-69
2023/04/01 02:17:36;;;;;;;3.10;2.30;;;;;;;6.52;nan;96358.53;1727336;75;24790;-73
2023/04/01 02:20:11;;;;;;;4.50;3.10;;;;;;;6.35;nan;96360.34;1727509;75;24224;-70
2023/04/01 02:22:49;;;;;;;4.00;2.60;;;;;;;6.44;nan;96365.63;1727193;75;24180;-69
2023/04/01 02:25:24;;;;;;;3.20;2.30;;;;;;;6.43;nan;96358.69;1727134;75;24208;-69
2023/04/01 02:27:54;;;;;;;2.70;2.30;;;;;;;6.33;nan;96351.94;1727225;75;24275;-69
2023/04/01 02:30:25;;;;;;;3.00;2.20;;;;;;;6.39;nan;96360.88;1727509;75;24716;-69
2023/04/01 02:32:55;;;;;;;2.70;2.00;;;;;;;6.30;nan;96364.50;1727362;75;24873;-69
2023/04/01 02:35:25;;;;;;;3.00;1.80;;;;;;;6.17;nan;96374.97;1727215;75;24337;-70
2023/04/01 02:37:59;;;;;;;3.10;2.20;;;;;;;5.98;nan;96372.53;1727014;75;25174;-70
2023/04/01 02:40:28;;;;;;;2.00;1.60;;;;;;;6.13;nan;96375.19;1727380;75;25129;-70
2023/04/01 02:42:58;;;;;;;2.80;1.70;;;;;;;6.09;nan;96384.78;1727233;75;25081;-69
2023/04/01 02:45:27;;;;;;;2.40;1.70;;;;;;;6.11;nan;96377.63;1727324;75;24166;-68
2023/04/01 02:47:57;;;;;;;1.80;1.40;;;;;;;6.12;nan;96387.28;1727342;75;24255;-69
2023/04/01 02:50:27;;;;;;;1.20;1.10;;;;;;;6.13;nan;96388.00;1727346;75;24302;-70
2023/04/01 02:52:59;;;;;;;1.60;1.30;;;;;;;6.04;nan;96380.78;1727135;75;24162;-69
2023/04/01 02:55:29;;;;;;;1.70;1.30;;;;;;;5.98;nan;96379.94;1727163;75;24589;-73
2023/04/01 02:57:59;;;;;;;1.20;1.10;;;;;;;6.02;nan;96375.06;1727075;75;24811;-69
2023/04/01 03:00:29;;;;;;;1.30;1.10;;;;;;;5.94;nan;96373.97;1727338;75;25096;-70
2023/04/01 03:02:59;;;;;;;1.80;1.20;;;;;;;5.98;nan;96382.66;1727094;75;24366;-70
2023/04/01 03:05:29;;;;;;;1.20;1.00;;;;;;;6.00;nan;96379.47;1727209;75;24174;-71
2023/04/01 03:08:01;;;;;;;1.30;1.20;;;;;;;6.02;nan;96382.47;1727259;75;24218;-68
2023/04/01 03:10:31;;;;;;;1.80;1.10;;;;;;;5.96;nan;96376.94;1727397;75;24141;-69
2023/04/01 03:13:00;;;;;;;1.90;1.20;;;;;;;5.95;nan;96376.22;1727112;75;24590;-70
2023/04/01 03:15:30;;;;;;;3.20;2.70;;;;;;;5.63;nan;96391.59;1727284;75;24433;-70
2023/04/01 03:18:00;;;;;;;2.90;2.60;;;;;;;5.77;nan;96384.59;1727273;83;24454;-71
2023/04/01 03:20:30;;;;;;;2.70;2.30;;;;;;;5.88;nan;96378.56;1727412;75;24625;-70
2023/04/01 03:23:02;;;;;;;2.80;2.50;;;;;;;5.89;nan;96383.53;1726984;83;25192;-69
2023/04/01 03:25:32;;;;;;;2.90;2.50;;;;;;;5.74;nan;96404.56;1727071;75;24226;-69
2023/04/01 03:28:02;;;;;;;2.90;2.60;;;;;;;5.65;nan;96397.28;1726191;75;24927;-70
2023/04/01 03:30:36;;;;;;;3.00;2.40;;;;;;;5.58;nan;96405.06;1727326;75;24248;-70
2023/04/01 03:33:06;;;;;;;2.50;2.20;;;;;;;5.80;nan;96407.34;1726735;75;24707;-68
2023/04/01 03:35:36;;;;;;;1.60;1.50;;;;;;;5.89;nan;96415.34;1727124;75;24177;-70
2023/04/01 03:38:08;;;;;;;1.40;1.30;;;;;;;5.91;nan;96410.19;1727154;75;24813;-70
2023/04/01 03:40:38;;;;;;;1.60;1.50;;;;;;;5.85;nan;96412.84;1727176;75;24181;-69
2023/04/01 03:43:09;;;;;;;1.90;1.70;;;;;;;5.75;nan;96420.38;1726949;75;24184;-69
2023/04/01 03:45:39;;;;;;;2.10;1.90;;;;;;;5.77;nan;96414.47;1726625;75;24140;-69
2023/04/01 03:48:09;;;;;;;3.90;3.00;;;;;;;5.81;nan;96422.41;1726918;75;24476;-69
2023/04/01 03:50:38;;;;;;;2.50;2.30;;;;;;;5.88;nan;96413.88;1727367;83;24151;-70
2023/04/01 03:53:11;;;;;;;3.30;1.80;;;;;;;5.97;nan;96419.22;1726930;75;25171;-68
2023/04/01 03:55:41;;;;;;;1.60;1.50;;;;;;;5.98;nan;96426.88;1727049;75;24295;-70
2023/04/01 03:58:12;;;;;;;1.70;1.40;;;;;;;5.95;nan;96422.38;1726614;75;24477;-71
2023/04/01 04:00:41;;;;;;;2.10;1.90;;;;;;;5.89;nan;96421.56;1727230;75;24253;-70
2023/04/01 04:03:11;;;;;;;2.10;1.90;;;;;;;5.87;nan;96421.28;1727152;75;24015;-71
2023/04/01 04:05:40;;;;;;;2.30;2.00;;;;;;;5.95;nan;96421.66;1727465;75;24234;-71
2023/04/01 04:08:12;;;;;;;2.00;1.70;;;;;;;6.03;nan;96417.28;1727069;75;24502;-69
2023/04/01 04:10:42;;;;;;;1.40;1.30;;;;;;;6.04;nan;96415.31;1727217;75;24085;-69
2023/04/01 04:13:12;;;;;;;1.10;1.00;;;;;;;6.07;nan;96422.53;1726836;75;24227;-69
2023/04/01 04:15:42;;;;;;;1.40;1.30;;;;;;;6.04;nan;96429.66;1727144;75;24212;-70
2023/04/01 04:18:11;;;;;;;1.20;1.10;;;;;;;6.07;nan;96427.97;1726505;75;24238;-74
2023/04/01 04:20:50;;;;;;;4.00;2.90;;;;;;;5.67;nan;96437.53;1727287;75;24274;-71
2023/04/01 04:23:23;;;;;;;3.00;2.60;;;;;;;5.79;nan;96425.59;1726976;75;24378;-68
2023/04/01 04:26:01;;;;;;;1.90;1.80;;;;;;;5.98;nan;96426.88;1726987;75;24280;-69
2023/04/01 04:28:31;;;;;;;1.90;1.70;;;;;;;5.80;nan;96431.78;1726475;75;24748;-69
2023/04/01 04:31:01;;;;;;;2.20;1.90;;;;;;;5.91;nan;96440.06;1727028;75;24256;-69
2023/04/01 04:33:31;;;;;;;2.50;2.10;;;;;;;5.90;nan;96438.59;1726617;75;24682;-69
2023/04/01 04:36:02;;;;;;;2.90;2.30;;;;;;;5.92;nan;96419.84;1727190;75;24067;-69
2023/04/01 04:38:35;;;;;;;1.60;1.50;;;;;;;6.00;nan;96425.66;1726517;75;25219;-72
2023/04/01 04:41:05;;;;;;;1.80;1.50;;;;;;;6.02;nan;96428.66;1726983;75;24173;-70
2023/04/01 04:43:34;;;;;;;1.50;1.40;;;;;;;6.00;nan;96431.09;1726767;75;26804;-68
2023/04/01 04:46:08;;;;;;;1.50;1.40;;;;;;;6.04;nan;96429.66;1727193;75;24967;-68
2023/04/01 04:48:38;;;;;;;1.90;1.50;;;;;;;5.91;nan;96423.78;1726296;75;24961;-69
2023/04/01 04:51:08;;;;;;;1.50;1.40;;;;;;;6.04;nan;96420.75;1726939;75;25048;-70
2023/04/01 04:53:40;;;;;;;1.20;1.10;;;;;;;5.97;nan;96421.94;1726746;75;24974;-68
2023/04/01 04:56:10;;;;;;;1.20;1.10;;;;;;;5.84;nan;96424.91;1727310;75;24425;-67
2023/04/01 04:58:41;;;;;;;1.90;1.50;;;;;;;5.75;nan;96425.06;1726978;75;24741;-68
2023/04/01 05:01:14;;;;;;;2.00;1.70;;;;;;;5.86;nan;96424.47;1726768;75;24820;-68
2023/04/01 05:03:44;;;;;;;2.10;1.70;;;;;;;5.92;nan;96422.56;1726901;75;26037;-69
2023/04/01 05:06:17;;;;;;;2.50;1.90;;;;;;;5.87;nan;96410.41;1726881;75;24305;-70
2023/04/01 05:08:50;;;;;;;2.70;1.90;;;;;;;5.93;nan;96413.94;1726727;75;25233;-69
2023/04/01 05:11:21;;;;;;;2.20;1.50;;;;;;;5.95;nan;96416.97;1727010;75;24478;-69
2023/04/01 05:13:51;;;;;;;2.90;1.60;;;;;;;5.91;nan;96418.34;1726690;75;24932;-68
2023/04/01 05:16:23;;;;;;;2.00;1.60;;;;;;;5.87;nan;96424.00;1727042;75;24878;-68
2023/04/01 05:18:52;;;;;;;4.40;2.30;;;;;;;5.83;nan;96428.88;1727156;75;24532;-68
2023/04/01 05:21:22;;;;;;;1.80;1.60;;;;;;;5.93;nan;96429.50;1727228;75;24448;-70
2023/04/01 05:23:54;;;;;;;2.30;1.70;;;;;;;5.96;nan;96429.34;1726459;75;24592;-69
2023/04/01 05:26:24;;;;;;;2.30;1.90;;;;;;;5.98;nan;96428.84;1727213;75;24253;-69
2023/04/01 05:28:54;;;;;;;2.40;1.90;;;;;;;6.03;nan;96430.88;1727059;75;24835;-68
2023/04/01 05:31:23;;;;;;;2.00;1.70;;;;;;;6.07;nan;96430.69;1727149;75;24711;-70
2023/04/01 05:33:53;;;;;;;1.90;1.60;;;;;;;6.14;nan;96425.59;1726584;75;24678;-70
2023/04/01 05:36:23;;;;;;;1.80;1.50;;;;;;;6.17;nan;96429.31;1727138;75;24126;-70
2023/04/01 05:38:58;;;;;;;2.10;1.90;;;;;;;6.11;nan;96445.56;1727265;75;24929;-70
2023/04/01 05:41:28;;;;;;;2.30;1.70;;;;;;;6.19;nan;96430.34;1727677;75;24134;-69
2023/04/01 05:43:58;;;;;;;1.40;1.30;;;;;;;6.31;nan;96444.06;1727219;75;24720;-70
2023/04/01 05:46:27;;;;;;;2.30;1.40;;;;;;;6.33;nan;96439.66;1727582;75;24140;-69
2023/04/01 05:48:57;;;;;;;1.40;1.30;;;;;;;6.31;nan;96433.94;1727181;75;24122;-70
2023/04/01 05:51:27;;;;;;;1.80;1.50;;;;;;;6.44;nan;96441.72;1727498;75;24256;-71
2023/04/01 05:53:59;;;;;;;1.70;1.60;;;;;;;6.40;nan;96441.22;1727074;75;24122;-74
2023/04/01 05:56:29;;;;;;;4.10;2.30;;;;;;;6.48;nan;96441.53;1727555;75;24318;-70
2023/04/01 05:58:58;;;;;;;1.90;1.40;;;;;;;6.59;nan;96438.91;1727661;75;24185;-68
2023/04/01 06:01:28;;;;;;;2.10;1.60;;;;;;;6.55;nan;96447.31;1727965;75;24155;-70
2023/04/01 06:03:58;;;;;;;2.60;2.00;;;;;;;6.65;nan;96439.00;1727164;75;24251;-69
2023/04/01 06:06:30;;;;;;;1.60;1.50;;;;;;;6.71;nan;96437.84;1727329;75;24820;-69
2023/04/01 06:09:16;;;;;;;4.10;2.10;;;;;;;6.79;nan;96427.28;1727266;75;24625;-69
2023/04/01 06:12:10;;;;;;;4.90;2.80;;;;;;;6.61;nan;96434.53;1727532;75;24914;-69
2023/04/01 06:14:51;;;;;;;3.70;3.30;;;;;;;6.69;nan;96437.56;1727200;75;24776;-70
2023/04/01 06:17:44;;;;;;;4.20;3.20;;;;;;;6.73;nan;96435.34;1727008;75;24287;-70
2023/04/01 06:20:25;;;;;;;4.20;3.60;;;;;;;6.74;nan;96436.88;1727192;75;25410;-69
2023/04/01 06:23:21;;;;;;;3.80;3.30;;;;;;;6.94;nan;96438.03;1727021;83;24915;-69
2023/04/01 06:26:15;;;;;;;2.80;2.50;;;;;;;7.12;nan;96431.50;1726978;75;24936;-70
2023/04/01 06:29:08;;;;;;;5.20;4.30;;;;;;;7.35;nan;96438.63;1727197;75;24917;-71
2023/04/01 06:31:56;;;;;;;4.40;3.10;;;;;;;7.56;nan;96443.97;1727338;75;26302;-70
2023/04/01 06:34:53;;;;;;;;;;;;;;;7.66;nan;96448.75;1727381;75;25066;-69
2023/04/01 06:37:53;;;;;;;3.50;2.90;;;;;;;7.75;nan;96452.53;1727162;75;24954;-70
2023/04/01 06:41:06;;;;;;;3.80;3.30;;;;;;;7.85;nan;96457.28;1726850;75;25459;-69
2023/04/01 06:43:49;;;;;;;4.80;4.20;;;;;;;8.17;nan;96454.47;1727098;75;24110;-72
2023/04/01 06:46:32;;;;;;;4.20;3.70;;;;;;;8.53;nan;96452.91;1727224;75;24182;-69
2023/04/01 06:49:19;;;;;;;3.10;2.80;;;;;;;8.76;nan;96444.81;1727393;75;24402;-69
2023/04/01 06:52:00;;;;;;;3.60;3.10;;;;;;;9.15;nan;96457.75;1727312;75;24422;-70
2023/04/01 06:54:35;;;;;;;4.90;3.70;;;;;;;9.18;nan;96459.50;1727067;75;24133;-69
2023/04/01 06:57:21;;;;;;;4.30;3.30;;;;;;;9.03;nan;96467.19;1727060;75;24239;-70
2023/04/01 06:59:51;;;;;;;3.90;3.40;;;;;;;9.21;nan;96463.97;1727072;75;25683;-71
2023/04/01 07:02:31;;;;;;;4.60;3.90;;;;;;;9.19;nan;96477.38;1727508;75;24978;-70
2023/04/01 07:05:02;;;;;;;3.50;3.00;;;;;;;9.19;nan;96477.38;1726850;75;25420;-70
2023/04/01 07:07:38;;;;;;;5.00;4.20;;;;;;;9.51;nan;96474.41;1727297;75;24176;-70
2023/04/01 07:10:15;;;;;;;5.20;4.30;;;;;;;9.65;nan;96480.88;1726884;75;24843;-69
2023/04/01 07:12:52;;;;;;;4.70;3.80;;;;;;;9.24;nan;96484.09;1726848;75;24773;-70
2023/04/01 07:15:28;;;;;;;3.40;3.00;;;;;;;9.54;nan;96481.59;1727404;75;24446;-68
2023/04/01 07:18:05;;;;;;;2.90;2.10;;;;;;;9.76;nan;96483.56;1727127;75;24657;-69
2023/04/01 07:20:39;;;;;;;3.10;2.20;;;;;;;9.63;nan;96492.28;1727635;75;24184;-71
2023/04/01 07:23:19;;;;;;;4.20;2.70;;;;;;;9.60;nan;96487.81;1727140;75;24801;-70
2023/04/01 07:25:55;;;;;;;3.20;2.00;;;;;;;9.77;nan;96494.00;1726845;75;24446;-68
2023/04/01 07:28:33;;;;;;;3.00;2.30;;;;;;;9.46;nan;96499.75;1727060;75;24566;-69
2023/04/01 07:31:18;;;;;;;4.50;2.70;;;;;;;9.46;nan;96499.75;1726787;75;24534;-68
2023/04/01 07:33:57;;;;;;;4.10;2.30;;;;;;;9.53;nan;96500.00;1726865;75;24628;-68
2023/04/01 07:36:36;;;;;;;4.80;2.50;;;;;;;9.52;nan;96495.00;1727127;75;24266;-68
2023/04/01 07:39:20;;;;;;;3.90;2.40;;;;;;;9.85;nan;96493.50;1727380;75;24920;-69
2023/04/01 07:42:02;;;;;;;3.40;2.10;;;;;;;9.81;nan;96488.28;1727567;75;24231;-70
2023/04/01 07:44:46;;;;;;;7.10;2.70;;;;;;;9.58;nan;96491.03;1727606;75;24247;-71
2023/04/01 07:47:33;;;;;;;2.90;2.20;;;;;;;9.70;nan;96493.78;1726888;75;24841;-71
2023/04/01 07:50:16;;;;;;;3.30;2.50;;;;;;;9.86;nan;96486.78;1727189;75;25026;-70
2023/04/01 07:52:57;;;;;;;3.20;2.60;;;;;;;9.79;nan;96486.06;1727293;75;25053;-69
2023/04/01 07:55:32;;;;;;;4.30;2.70;;;;;;;9.59;nan;96486.31;1727094;75;24944;-69
2023/04/01 07:58:10;;;;;;;3.50;2.40;;;;;;;9.65;nan;96489.06;1727001;75;24272;-70
2023/04/01 08:00:53;;;;;;;4.50;2.50;;;;;;;9.77;nan;96499.47;1726942;75;25433;-68
2023/04/01 08:03:39;;;;;;;3.20;2.10;;;;;;;9.78;nan;96505.69;1727192;75;24404;-67
2023/04/01 08:06:21;;;;;;;4.70;2.70;;;;;;;9.63;nan;96505.94;1727154;75;24479;-69
2023/04/01 08:09:07;;;;;;;3.40;2.30;;;;;;;9.59;nan;96514.38;1727416;75;25100;-69
2023/04/01 08:11:58;;;;;;;3.30;2.10;;;;;;;9.65;nan;96502.72;1726927;75;25975;-71
2023/04/01 08:14:37;;;;;;;2.40;1.80;;;;;;;9.77;nan;96499.47;1726889;75;24031;-68
2023/04/01 08:17:18;;;;;;;3.00;2.00;;;;;;;9.91;nan;96502.44;1727131;75;24271;-69
2023/04/01 08:20:07;;;;;;;3.20;2.10;;;;;;;10.03;nan;96499.19;1726801;83;24959;-69
2023/04/01 08:22:40;;;;;;;;;;;;;;;10.30;nan;96496.94;1727007;75;24747;-70
2023/04/01 08:25:19;;;;;;;2.80;2.50;;;;;;;10.49;nan;96499.84;1726737;75;24310;-71
2023/04/01 08:27:53;;;;;;;4.70;2.50;;;;;;;10.42;nan;96501.09;1726917;75;26814;-70
2023/04/01 08:30:28;;;;;;;2.20;1.70;;;;;;;11.02;nan;96494.38;1727128;75;24183;-73
2023/04/01 08:33:08;;;;;;;2.40;1.80;;;;;;;11.44;nan;96489.59;1726903;75;24844;-72
2023/04/01 08:35:46;;;;;;;2.90;1.80;;;;;;;11.56;nan;96493.75;1726817;75;24147;-69
2023/04/01 08:38:21;;;;;;;3.50;2.00;;;;;;;11.86;nan;96501.97;1727246;75;24271;-70
2023/04/01 08:41:01;;;;;;;2.80;1.40;;;;;;;12.01;nan;96496.13;1726558;75;24364;-70
2023/04/01 08:44:10;;;;;;;2.60;1.40;;;;;;;12.21;nan;96505.16;1727159;75;25075;-69
2023/04/01 08:47:07;;;;;;;1.90;1.30;;;;;;;12.35;nan;96491.03;1727056;75;25537;-71
2023/04/01 08:50:23;;;;;;;1.60;1.20;;;;;;;12.21;nan;96505.91;1726892;75;24436;-70
2023/04/01 08:53:03;;;;;;;1.10;1.00;;;;;;;12.35;nan;96504.00;1726494;75;25611;-69
2023/04/01 08:55:49;;;;;;;2.40;1.60;;;;;;;12.07;nan;96507.03;1726919;75;24960;-68
2023/04/01 08:59:01;;;;;;;1.90;1.50;;;;;;;12.27;nan;96512.06;1727195;75;24917;-68
2023/04/01 09:02:07;;;;;;;2.60;1.80;;;;;;;12.17;nan;96502.72;1726913;75;24876;-68
2023/04/01 09:05:13;;;;;;;2.00;1.70;;;;;;;12.35;nan;96507.50;1726895;75;26234;-68
2023/04/01 09:07:54;;;;;;;2.20;1.80;;;;;;;12.21;nan;96510.66;1726849;75;25105;-70
2023/04/01 09:11:07;;;;;;;2.90;1.60;;;;;;;12.54;nan;96506.78;1726896;75;24157;-70
2023/04/01 09:14:23;;;;;;;3.40;1.60;;;;;;;12.55;nan;96511.78;1727031;75;24351;-70
2023/04/01 09:17:31;;;;;;;3.80;1.70;;;;;;;12.81;nan;96517.97;1727270;75;26813;-69
2023/04/01 09:20:20;;;;;;;;;;;;;;;12.79;nan;96521.22;1727534;75;24670;-72
2023/04/01 09:23:12;;;;;;;1.70;1.20;;;;;;;12.88;nan;96522.88;1727229;75;24512;-71
2023/04/01 09:26:09;;;;;;;1.30;1.00;;;;;;;13.14;nan;96525.75;1726808;75;24335;-70
2023/04/01 09:28:48;;;;;;;1.40;1.00;;;;;;;13.32;nan;96526.28;1726988;75;24513;-68
2023/04/01 09:31:52;;;;;;;2.60;1.70;;;;;;;13.56;nan;96522.69;1727449;75;24157;-69
2023/04/01 09:34:56;;;;;;;4.50;2.40;;;;;;;13.56;nan;96528.19;1727304;75;24548;-70
2023/04/01 09:37:38;;;;;;;1.60;1.00;;;;;;;13.79;nan;96520.34;1727257;75;25228;-69
2023/04/01 09:40:31;;;;;;;8.10;5.60;;;;;;;14.00;nan;96520.50;1727193;75;24508;-68
2023/04/01 09:43:28;;;;;;;5.00;3.30;;;;;;;14.20;nan;96519.13;1727652;75;24480;-69
2023/04/01 09:46:19;;;;;;;2.90;1.80;;;;;;;14.67;nan;96510.25;1727052;75;24207;-70
2023/04/01 09:49:42;;;;;;;1.90;1.10;;;;;;;14.89;nan;96520.09;1727080;75;24845;-72
2023/04/01 09:52:31;;;;;;;1.30;0.90;;;;;;;14.71;nan;96516.19;1726175;75;24561;-69
2023/04/01 09:55:37;;;;;;;2.00;0.90;;;;;;;14.69;nan;96527.00;1727237;75;24248;-69
2023/04/01 09:58:48;;;;;;;1.00;0.80;;;;;;;14.41;nan;96514.50;1727363;75;24226;-70
2023/04/01 10:01:43;;;;;;;1.10;0.60;;;;;;;14.21;nan;96526.84;1725846;75;25567;-71
2023/04/01 10:05:09;;;;;;;1.40;0.80;;;;;;;14.12;nan;96518.25;1726839;75;24320;-69
2023/04/01 10:08:18;;;;;;;1.10;0.80;;;;;;;14.14;nan;96527.50;1726523;75;24840;-70
2023/04/01 10:11:26;;;;;;;0.50;0.40;;;;;;;14.45;nan;96522.41;1727053;75;24466;-72
2023/04/01 10:14:39;;;;;;;1.60;0.90;;;;;;;14.48;nan;96524.13;1726924;75;24346;-69
2023/04/01 10:18:04;;;;;;;2.10;1.10;;;;;;;14.38;nan;96526.56;1727204;83;24658;-70
2023/04/01 10:21:06;;;;;;;0.80;0.60;;;;;;;14.41;nan;96533.03;1727344;75;25429;-70
2023/04/01 10:24:17;;;;;;;1.10;0.70;;;;;;;14.24;nan;96523.06;1727333;75;24400;-70
2023/04/01 10:27:38;;;;;;;1.00;0.70;;;;;;;14.01;nan;96525.44;1727308;75;25098;-69
2023/04/01 10:31:01;;;;;;;1.10;0.50;;;;;;;14.14;nan;96529.50;1726747;75;24845;-68
2023/04/01 10:34:15;;;;;;;0.50;0.50;;;;;;;13.70;nan;96531.72;1726263;75;25710;-69
2023/04/01 10:36:57;;;;;;;2.60;0.70;;;;;;;13.26;nan;96536.59;1727351;75;24200;-71
2023/04/01 10:40:36;;;;;;;0.80;0.50;;;;;;;13.98;nan;96525.78;1727503;75;24219;-68
2023/04/01 10:44:00;;;;;;;0.30;0.30;;;;;;;14.23;nan;96526.31;1725893;75;24635;-70
2023/04/01 10:47:21;;;;;;;0.60;0.40;;;;;;;14.10;nan;96513.31;1727254;75;25072;-73
2023/04/01 10:50:26;;;;;;;0.20;0.20;;;;;;;14.28;nan;96519.97;1726966;75;24200;-70
2023/04/01 10:53:39;;;;;;;0.60;0.30;;;;;;;14.39;nan;96519.78;1726714;75;24312;-74
2023/04/01 10:56:41;;;;;;;1.40;0.40;;;;;;;13.84;nan;96514.00;1726901;75;24508;-70
2023/04/01 10:59:58;;;;;;;0.10;0.10;;;;;;;14.14;nan;96522.00;1727177;75;24469;-69
2023/04/01 11:03:26;;;;;;;0.20;0.20;;;;;;;14.03;nan;96511.19;1726953;75;26624;-73
2023/04/01 11:06:41;;;;;;;0.70;0.20;;;;;;;14.38;nan;96520.28;1727126;75;24225;-71
2023/04/01 11:10:06;;;;;;;0.50;0.30;;;;;;;14.33;nan;96515.63;1727226;83;24869;-70
2023/04/01 11:13:31;;;;;;;0.40;0.40;;;;;;;14.43;nan;96522.97;1726914;75;24624;-70
2023/04/01 11:16:39;;;;;;;0.60;0.30;;;;;;;14.45;nan;96520.41;1727077;75;24980;-70
2023/04/01 11:19:53;;;;;;;1.70;1.20;;;;;;;14.65;nan;96523.84;1726947;75;24765;-69
2023/04/01 11:22:54;;;;;;;1.30;1.00;;;;;;;14.76;nan;96520.09;1727295;75;26013;-68
2023/04/01 11:26:13;;;;;;;0.20;0.10;;;;;;;14.72;nan;96514.94;1726675;75;25410;-68
2023/04/01 11:29:26;;;;;;;0.50;0.20;;;;;;;14.77;nan;96510.56;1727039;75;24833;-69
2023/04/01 11:32:10;;;;;;;3.60;2.20;;;;;;;14.64;nan;96506.53;1726295;83;24846;-71
2023/04/01 11:35:00;;;;;;;3.40;2.40;;;;;;;14.38;nan;96504.53;1726698;75;24797;-70
2023/04/01 11:37:43;;;;;;;1.20;0.70;;;;;;;14.90;nan;96507.78;1727030;75;24118;-74
2023/04/01 11:40:28;;;;;;;2.20;1.70;;;;;;;14.65;nan;96507.31;1727049;75;24781;-68
2023/04/01 11:43:06;;;;;;;10.20;7.00;;;;;;;15.08;nan;96508.91;1726948;75;24605;-70
2023/04/01 11:45:42;;;;;;;1.20;0.80;;;;;;;14.85;nan;96497.63;1727387;75;24534;-70
2023/04/01 11:48:54;;;;;;;1.30;0.30;;;;;;;14.48;nan;96497.34;1726691;75;24592;-70
2023/04/01 11:51:57;;;;;;;1.60;1.20;;;;;;;14.66;nan;96495.75;1727008;75;25615;-69
2023/04/01 11:54:47;;;;;;;0.40;0.30;;;;;;;14.52;nan;96501.78;1727075;75;26021;-70
2023/04/01 11:57:46;;;;;;;1.90;0.20;;;;;;;14.78;nan;96498.28;1726908;75;24835;-70
2023/04/01 12:00:48;;;;;;;0.10;0.10;;;;;;;14.76;nan;96504.31;1726771;75;25441;-70
2023/04/01 12:03:40;;;;;;;0.30;0.20;;;;;;;15.07;nan;96501.91;1726851;75;24917;-69
2023/04/01 12:06:22;;;;;;;0.30;0.20;;;;;;;15.12;nan;96503.81;1726901;75;24838;-71
2023/04/01 12:09:02;;;;;;;0.30;0.20;;;;;;;15.10;nan;96501.59;1727208;75;25002;-69
2023/04/01 12:11:42;;;;;;;0.40;0.20;;;;;;;15.31;nan;96503.66;1726938;75;24927;-73
2023/04/01 12:14:22;;;;;;;0.80;0.30;;;;;;;15.06;nan;96498.44;1727138;75;24107;-70
2023/04/01 12:17:04;;;;;;;0.40;0.20;;;;;;;14.43;nan;96506.44;1727141;75;24256;-71
2023/04/01 12:19:46;;;;;;;2.70;0.50;;;;;;;14.69;nan;96499.44;1726961;75;24490;-69
2023/04/01 12:22:47;;;;;;;2.70;0.50;;;;;;;14.97;nan;96492.63;1726968;75;24629;-71
2023/04/01 12:25:58;;;;;;;0.40;0.20;;;;;;;14.48;nan;96502.84;1726752;75;24712;-70
2023/04/01 12:28:41;;;;;;;0.70;0.20;;;;;;;14.81;nan;96497.22;1726818;75;24708;-70
2023/04/01 12:31:30;;;;;;;2.20;0.30;;;;;;;14.64;nan;96506.53;1726830;75;24457;-72
2023/04/01 12:34:35;;;;;;;0.20;0.20;;;;;;;14.48;nan;96497.34;1727145;75;24647;-69
2023/04/01 12:37:16;;;;;;;0.30;0.30;;;;;;;14.72;nan;96501.16;1726809;75;25342;-70
2023/04/01 12:40:19;;;;;;;0.60;0.20;;;;;;;14.84;nan;96496.91;1726984;75;24467;-69
2023/04/01 12:43:06;;;;;;;0.20;0.20;;;;;;;15.02;nan;96500.75;1726935;75;24535;-70
2023/04/01 12:45:37;;;;;;;15.30;6.50;;;;;;;14.88;nan;96496.56;1727270;75;24230;-70
2023/04/01 12:49:09;;;;;;;2.30;1.20;;;;;;;15.48;nan;96500.50;1726834;75;24459;-70
2023/04/01 12:52:03;;;;;;;1.90;0.70;;;;;;;15.46;nan;96492.03;1725976;83;24555;-70
2023/04/01 12:55:19;;;;;;;0.30;0.30;;;;;;;15.64;nan;96484.84;1726826;75;24662;-69
2023/04/01 12:58:41;;;;;;;0.30;0.20;;;;;;;15.59;nan;96480.94;1726655;75;24589;-71
2023/04/01 13:01:54;;;;;;;0.20;0.20;;;;;;;15.63;nan;96469.56;1727018;75;24865;-75
2023/04/01 13:05:23;;;;;;;3.30;1.30;;;;;;;14.93;nan;96472.91;1726609;75;24716;-71
2023/04/01 13:08:28;;;;;;;0.90;0.60;;;;;;;15.17;nan;96474.66;1726206;75;24402;-70
2023/04/01 13:11:21;;;;;;;0.50;0.40;;;;;;;15.40;nan;96463.84;1727080;75;24762;-70
2023/04/01 13:14:32;;;;;;;0.30;0.20;;;;;;;15.32;nan;96459.00;1727214;75;24193;-72